Data for 01/21/2005

Time Sea-Level Adjusted Pressure Absolute Pressure Temperature Relative Humidity Dew Point   
(mb) (inHg) (mb) (inHg) (C) (F) (%) (C) (F)
00:05 1016 30 845 24.95 6.4 43.6 57 -1.5 29.3
00:10 1016 30 845 24.95 6.7 44.1 56 -1.4 29.5
00:15 1016 30 845 24.95 6.8 44.2 56 -1.4 29.5
00:20 1016 30 845 24.95 6.9 44.5 54 -1.8 28.8
00:25 1016 30 845 24.95 6.9 44.5 54 -1.6 29.1
00:30 1016 30 845 24.95 6.8 44.3 54 -1.8 28.8
00:35 1016 30 845 24.95 6.9 44.5 53 -1.9 28.6
00:40 1016 30 845 24.95 6.7 44.1 56 -1.4 29.5
00:45 1016 30 845 24.95 6.6 43.8 55 -1.7 28.9
00:50 1016 30 845 24.95 6.4 43.6 58 -1.2 29.9
00:55 1016 30 845 24.95 5.7 42.2 62 -1 30.2
01:00 1016 30 845 24.95 5.1 41.1 63 -1.3 29.7
01:05 1016 30 845 24.95 5.3 41.5 61 -1.6 29.1
01:10 1016 30 845 24.95 5.6 42 59 -1.7 28.9
01:15 1016 30 845 24.95 5.5 41.9 62 -1.3 29.7
01:20 1016 30 845 24.95 5.3 41.6 59 -2 28.5
01:25 1016 30 846 24.98 5.7 42.3 57 -2 28.4
01:30 1017 30.03 846 24.98 6.3 43.3 54 -2.2 28
01:35 1017 30.03 846 24.98 6.7 44.1 53 -2.1 28.2
01:40 1017 30.03 846 24.98 7.4 45.3 51 -2.1 28.2
01:45 1017 30.03 846 24.98 7.8 46 50 -2 28.5
01:50 1017 30.03 846 24.98 7.9 46.1 50 -1.8 28.8
01:55 1017 30.03 846 24.98 7.4 45.4 54 -1.1 29.9
02:00 1017 30.03 846 24.98 6.7 44 55 -1.7 28.9
02:05 1017 30.03 846 24.98 6.8 44.2 54 -1.7 28.9
02:10 1017 30.03 846 24.98 6.6 43.8 57 -1.4 29.5
02:15 1017 30.03 846 24.98 6.3 43.3 55 -2.2 28.1
02:20 1017 30.03 846 24.98 6.8 44.2 56 -1.2 29.8
02:25 1017 30.03 846 24.98 6.1 42.9 57 -1.8 28.8
02:30 1017 30.03 846 24.98 6 42.8 59 -1.4 29.5
02:35 1017 30.03 846 24.98 6 42.8 57 -1.8 28.8
02:40 1017 30.03 846 24.98 6.2 43.2 57 -1.7 29
02:45 1017 30.03 846 24.98 6.6 43.9 55 -1.8 28.7
02:50 1017 30.03 846 24.98 6.9 44.3 54 -1.8 28.8
02:55 1017 30.03 846 24.98 6.9 44.5 55 -1.4 29.5
03:00 1017 30.03 846 24.98 6.6 43.9 57 -1.2 29.8
03:05 1017 30.03 846 24.98 6.1 43 58 -1.6 29.1
03:10 1017 30.03 847 25.01 6 42.9 57 -1.7 28.9
03:15 1017 30.03 846 24.98 6.1 42.9 56 -1.9 28.5
03:20 1017 30.03 846 24.98 6.1 43 56 -1.9 28.6
03:25 1017 30.03 846 24.98 6.5 43.7 54 -2.1 28.3
03:30 1017 30.03 846 24.98 6.7 44 53 -2.2 28.1
03:35 1017 30.03 846 24.98 6.7 44.1 54 -2 28.5
03:40 1017 30.03 846 24.98 6.6 44 54 -2 28.4
03:45 1017 30.03 846 24.98 6.4 43.6 55 -1.9 28.5
03:50 1017 30.03 846 24.98 6.2 43.2 56 -2 28.5
03:55 1017 30.03 846 24.98 6.4 43.4 54 -2.2 28.1
04:00 1017 30.03 846 24.98 6.6 43.9 53 -2.3 27.9
04:05 1017 30.03 846 24.98 6.3 43.4 57 -1.5 29.2
04:10 1017 30.03 846 24.98 5 41 62 -1.7 28.9
04:15 1017 30.03 846 24.98 5.2 41.4 57 -2.7 27.2
04:20 1017 30.03 847 25.01 6.3 43.4 53 -2.5 27.5
04:25 1017 30.03 847 25.01 6.6 43.8 53 -2.3 27.8
04:30 1017 30.03 847 25.01 6.5 43.8 53 -2.4 27.7
04:35 1017 30.03 847 25.01 6.5 43.7 52 -2.5 27.4
04:40 1017 30.03 847 25.01 6.8 44.2 51 -2.8 27
04:45 1018 30.06 847 25.01 6.9 44.3 51 -2.4 27.6
04:50 1018 30.06 847 25.01 6.7 44 52 -2.6 27.4
04:55 1018 30.06 847 25.01 6.6 43.8 52 -2.6 27.4
05:00 1018 30.06 847 25.01 6.5 43.8 53 -2.2 28
05:05 1018 30.06 847 25.01 6.3 43.3 54 -2.3 27.9
05:10 1018 30.06 847 25.01 6.1 43.1 55 -2.3 27.9
05:15 1018 30.06 847 25.01 6 42.8 55 -2.3 27.8
05:20 1018 30.06 847 25.01 6 42.8 54 -2.5 27.5
05:25 1018 30.06 847 25.01 6.2 43.2 53 -2.6 27.3
05:30 1018 30.06 847 25.01 6.4 43.5 52 -2.7 27.2
05:35 1018 30.06 847 25.01 6.5 43.6 52 -2.7 27.2
05:40 1018 30.06 847 25.01 6.4 43.5 52 -2.6 27.3
05:45 1018 30.06 847 25.01 6.4 43.6 52 -2.7 27.1
05:50 1018 30.06 847 25.01 6.5 43.6 52 -2.7 27.1
05:55 1018 30.06 847 25.01 6.4 43.5 52 -2.8 27
06:00 1018 30.06 847 25.01 6.4 43.5 52 -2.6 27.3
06:05 1018 30.06 847 25.01 6.2 43.2 55 -2.2 28
06:10 1018 30.06 847 25.01 5.7 42.2 58 -2 28.3
06:15 1018 30.06 847 25.01 5.3 41.5 57 -2.6 27.4
06:20 1018 30.06 848 25.04 5.4 41.8 56 -2.7 27.2
06:25 1018 30.06 848 25.04 5.4 41.8 56 -2.7 27.2
06:30 1019 30.09 848 25.04 5.4 41.7 59 -1.9 28.5
06:35 1019 30.09 848 25.04 4.6 40.3 61 -2.3 27.9
06:40 1019 30.09 848 25.04 4.9 40.8 59 -2.5 27.6
06:45 1019 30.09 848 25.04 5.1 41.1 58 -2.6 27.4
06:50 1019 30.09 848 25.04 5.3 41.6 56 -2.7 27.1
06:55 1019 30.09 848 25.04 5.5 41.9 56 -2.6 27.4
07:00 1019 30.09 848 25.04 5.5 41.9 56 -2.6 27.3
07:05 1019 30.09 848 25.04 5.3 41.5 57 -2.4 27.6
07:10 1019 30.09 848 25.04 5.2 41.3 57 -2.6 27.4
07:15 1019 30.09 848 25.04 5.5 41.8 55 -2.8 26.9
07:20 1019 30.09 848 25.04 5.9 42.7 54 -2.7 27.2
07:25 1019 30.09 848 25.04 6.1 42.9 53 -2.8 26.9
07:30 1019 30.09 848 25.04 6.3 43.3 52 -2.9 26.9
07:35 1019 30.09 848 25.04 6.3 43.3 53 -2.6 27.3
07:40 1019 30.09 848 25.04 6.1 42.9 54 -2.4 27.6
07:45 1019 30.09 848 25.04 5.9 42.7 54 -2.6 27.3
07:50 1019 30.09 848 25.04 6.1 43 53 -2.7 27.2
07:55 1019 30.09 848 25.04 6.1 43 54 -2.6 27.4
08:00 1019 30.09 849 25.07 6.1 43.1 53 -2.7 27.2
08:05 1019 30.09 849 25.07 6.2 43.2 53 -2.6 27.3
08:10 1019 30.09 849 25.07 6.2 43.1 53 -2.8 27
08:15 1019 30.09 849 25.07 6.2 43.2 52 -2.8 27
08:20 1019 30.09 849 25.07 6.3 43.3 52 -2.7 27.1
08:25 1020 30.12 849 25.07 6.4 43.5 52 -2.8 26.9
08:30 1020 30.12 849 25.07 6.6 43.8 51 -2.7 27.1
08:35 1020 30.12 849 25.07 6.6 43.9 52 -2.6 27.4
08:40 1020 30.12 849 25.07 6.6 44 51 -2.7 27.2
08:45 1020 30.12 849 25.07 6.7 44.1 51 -2.6 27.3
08:50 1020 30.12 849 25.07 6.9 44.4 50 -2.8 27
08:55 1020 30.12 849 25.07 6.9 44.5 50 -2.7 27.2
09:00 1020 30.12 849 25.07 7 44.6 50 -2.7 27.1
09:05 1020 30.12 849 25.07 7 44.5 50 -2.6 27.3
09:10 1020 30.12 849 25.07 7 44.6 51 -2.6 27.4
09:15 1020 30.12 849 25.07 7 44.6 50 -2.6 27.2
09:20 1020 30.12 849 25.07 7.1 44.9 50 -2.5 27.4
09:25 1020 30.12 849 25.07 7.2 44.9 50 -2.6 27.4
09:30 1020 30.12 849 25.07 7.3 45.1 49 -2.7 27.2
09:35 1020 30.12 849 25.07 7.3 45.2 50 -2.5 27.5
09:40 1020 30.12 850 25.1 7.5 45.5 49 -2.5 27.4
09:45 1021 30.15 850 25.1 7.7 45.8 48 -2.6 27.4
09:50 1021 30.15 850 25.1 7.8 46.1 48 -2.5 27.5
09:55 1021 30.15 850 25.1 8 46.4 48 -2.4 27.8
10:00 1021 30.15 850 25.1 8.2 46.7 49 -1.9 28.6
10:05 1021 30.15 850 25.1 8.3 46.9 49 -1.7 29
10:10 1021 30.15 850 25.1 8.1 46.5 50 -1.6 29.1
10:15 1021 30.15 850 25.1 8 46.3 50 -1.7 28.9
10:20 1021 30.15 850 25.1 8.1 46.6 49 -2.1 28.3
10:25 1021 30.15 850 25.1 8.3 47 46 -2.5 27.4
10:30 1021 30.15 850 25.1 8.7 47.6 46 -2.4 27.7
10:35 1021 30.15 850 25.1 9.1 48.4 45 -2.1 28.2
10:40 1021 30.15 850 25.1 9.2 48.5 45 -2 28.3
10:45 1021 30.15 850 25.1 9.2 48.5 45 -2 28.4
10:50 1021 30.15 850 25.1 8.5 47.3 50 -1.3 29.7
10:55 1021 30.15 850 25.1 7.9 46.2 50 -1.8 28.8
11:00 1021 30.15 850 25.1 7.7 45.9 51 -1.7 28.9
11:05 1021 30.15 851 25.13 8.1 46.6 49 -2 28.4
11:10 1021 30.15 851 25.13 8.3 46.9 49 -1.8 28.8
11:15 1021 30.15 851 25.13 8.5 47.3 48 -1.8 28.8
11:20 1021 30.15 851 25.13 8.3 47 49 -1.8 28.7
11:25 1021 30.15 851 25.13 8.6 47.5 46 -2.3 27.9
11:30 1021 30.15 851 25.13 9 48.1 46 -2.1 28.2
11:35 1021 30.15 851 25.13 9.5 49 43 -2.5 27.5
11:40 1021 30.15 851 25.13 9.9 49.7 42 -2.3 27.9
11:45 1021 30.15 851 25.13 9.8 49.6 42 -2.3 27.8
11:50 1021 30.15 851 25.13 9.9 49.9 43 -2 28.3
11:55 1021 30.15 851 25.13 9.9 49.9 43 -2.2 28.1
12:00 1021 30.15 851 25.13 10 50 43 -1.9 28.6
12:05 1021 30.15 851 25.13 9.9 49.9 42 -2.5 27.6
12:10 1021 30.15 851 25.13 10 49.9 43 -2.1 28.3
12:15 1021 30.15 850 25.1 9.8 49.6 44 -2 28.4
12:20 1021 30.15 850 25.1 10.2 50.3 42 -2 28.4
12:25 1021 30.15 850 25.1 10.4 50.8 41 -2.3 27.9
12:30 1021 30.15 850 25.1 10.6 51.2 41 -1.9 28.6
12:35 1021 30.15 850 25.1 10.6 51 42 -1.8 28.8
12:40 1021 30.15 851 25.13 10.3 50.6 42 -2 28.4
12:45 1021 30.15 851 25.13 10.3 50.5 42 -1.9 28.5
12:50 1021 30.15 851 25.13 9.7 49.5 42 -2.5 27.5
12:55 1021 30.15 851 25.13 9.8 49.7 42 -2.3 27.8
13:00 1021 30.15 851 25.13 10 50 43 -2 28.4
13:05 1022 30.18 851 25.13 10 50 43 -2 28.3
13:10 1021 30.15 851 25.13 10.3 50.5 40 -2.7 27.1
13:15 1021 30.15 851 25.13 10.5 50.9 40 -2.6 27.4
13:20 1021 30.15 851 25.13 10.4 50.6 42 -2 28.3
13:25 1021 30.15 851 25.13 10.7 51.2 40 -2.4 27.6
13:30 1021 30.15 851 25.13 10.6 51.1 40 -2.4 27.7
13:35 1021 30.15 851 25.13 10 50.1 41 -2.5 27.6
13:40 1021 30.15 851 25.13 10.4 50.6 40 -2.5 27.5
13:45 1021 30.15 851 25.13 10.4 50.7 41 -2.4 27.7
13:50 1021 30.15 851 25.13 10.3 50.6 41 -2.4 27.6
13:55 1021 30.15 851 25.13 10 49.9 42 -2.4 27.6
14:00 1021 30.15 851 25.13 10 50.1 42 -2.3 27.8
14:05 1021 30.15 851 25.13 10 49.9 41 -2.6 27.4
14:10 1021 30.15 851 25.13 10.4 50.7 41 -2.4 27.6
14:15 1021 30.15 850 25.1 10.6 51.2 40 -2.3 27.9
14:20 1021 30.15 850 25.1 11 51.8 40 -2.1 28.1
14:25 1021 30.15 850 25.1 11.2 52.1 39 -2.1 28.3
14:30 1021 30.15 850 25.1 10.5 50.9 42 -1.7 28.9
14:35 1021 30.15 850 25.1 10 50 43 -2 28.4
14:40 1021 30.15 850 25.1 10.2 50.3 42 -2.3 27.9
14:45 1021 30.15 850 25.1 11 51.8 40 -1.9 28.6
14:50 1021 30.15 850 25.1 10.3 50.6 43 -1.8 28.8
14:55 1021 30.15 850 25.1 10.4 50.7 41 -2.2 28
15:00 1021 30.15 850 25.1 11 51.7 41 -1.8 28.8
15:05 1021 30.15 850 25.1 11.5 52.7 38 -2.3 27.9
15:10 1021 30.15 850 25.1 11.2 52.2 40 -1.7 28.9
15:15 1021 30.15 850 25.1 11 51.7 40 -1.9 28.6
15:20 1021 30.15 851 25.13 11.4 52.4 41 -1.4 29.5
15:25 1021 30.15 851 25.13 11 51.8 41 -1.8 28.8
15:30 1021 30.15 851 25.13 11.3 52.3 40 -1.9 28.6
15:35 1022 30.18 851 25.13 12.2 53.9 37 -2 28.5
15:40 1022 30.18 851 25.13 11.6 52.8 39 -1.8 28.7
15:45 1022 30.18 851 25.13 10.7 51.3 42 -1.6 29.2
15:50 1022 30.18 851 25.13 10.1 50.2 43 -1.9 28.7
15:55 1022 30.18 851 25.13 10.3 50.5 43 -1.8 28.8
16:00 1022 30.18 851 25.13 10.2 50.4 44 -1.6 29.2
16:05 1022 30.18 851 25.13 10.1 50.3 44 -1.6 29.1
16:10 1022 30.18 851 25.13 10 50 45 -1.5 29.3
16:15 1022 30.18 851 25.13 9.8 49.6 45 -1.5 29.4
16:20 1022 30.18 851 25.13 9.7 49.5 44 -1.8 28.8
16:25 1022 30.18 851 25.13 9.5 49 45 -1.8 28.7
16:30 1022 30.18 851 25.13 9.5 49 46 -1.7 29
16:35 1022 30.18 851 25.13 9.3 48.8 46 -1.8 28.8
16:40 1022 30.18 851 25.13 9.2 48.6 46 -1.7 29
16:45 1022 30.18 851 25.13 9.3 48.8 46 -1.6 29.1
16:50 1022 30.18 851 25.13 9.2 48.5 47 -1.6 29.2
16:55 1022 30.18 851 25.13 9.1 48.5 47 -1.5 29.2
17:00 1022 30.18 851 25.13 9.2 48.6 47 -1.5 29.3
17:05 1022 30.18 851 25.13 9.1 48.3 47 -1.5 29.2
17:10 1022 30.18 851 25.13 8.9 48 48 -1.3 29.6
17:15 1022 30.18 851 25.13 7.8 46 55 -0.6 30.9
17:20 1022 30.18 851 25.13 6.9 44.4 55 -1.4 29.4
17:25 1022 30.18 851 25.13 6.9 44.4 55 -1.4 29.4
17:30 1022 30.18 851 25.13 6.7 44 57 -1.2 29.8
17:35 1022 30.18 852 25.16 6.6 43.9 58 -1.1 30
17:40 1023 30.21 852 25.16 6.2 43.1 61 -0.8 30.6
17:45 1023 30.21 852 25.16 5.7 42.3 64 -0.5 31.1
17:50 1023 30.21 852 25.16 5.5 41.9 64 -0.7 30.7
17:55 1023 30.21 852 25.16 5.3 41.6 66 -0.6 30.9
18:00 1023 30.21 852 25.16 5 41 66 -0.8 30.6
18:05 1023 30.21 852 25.16 4.8 40.6 67 -0.8 30.6
18:10 1023 30.21 852 25.16 4.6 40.3 68 -0.9 30.5
18:15 1023 30.21 852 25.16 4.3 39.8 68 -1.1 30.1
18:20 1023 30.21 852 25.16 3.9 39.1 69 -1.2 29.8
18:25 1023 30.21 852 25.16 3.6 38.5 70 -1.4 29.4
18:30 1023 30.21 852 25.16 3.3 37.9 71 -1.5 29.3
18:35 1023 30.21 852 25.16 3 37.4 72 -1.6 29.2
18:40 1023 30.21 852 25.16 2.7 36.9 72 -1.7 28.9
18:45 1023 30.21 852 25.16 2.5 36.4 73 -1.9 28.7
18:50 1023 30.21 852 25.16 2.3 36.1 74 -1.9 28.5
18:55 1023 30.21 852 25.16 2.1 35.7 74 -2 28.4
19:00 1023 30.21 852 25.16 2 35.6 75 -2 28.4
19:05 1023 30.21 852 25.16 1.8 35.3 75 -2.1 28.3
19:10 1023 30.21 852 25.16 1.8 35.2 76 -2.1 28.3
19:15 1023 30.21 852 25.16 1.6 34.9 77 -2.1 28.3
19:20 1023 30.21 852 25.16 1.5 34.8 77 -2.1 28.3
19:25 1023 30.21 852 25.16 1.4 34.6 78 -2 28.4
19:30 1023 30.21 852 25.16 1.4 34.5 78 -2 28.4
19:35 1023 30.21 852 25.16 1.4 34.5 78 -2 28.4
19:40 1023 30.21 852 25.16 1.3 34.4 79 -2 28.5
19:45 1023 30.21 852 25.16 1.3 34.4 79 -1.9 28.6
19:50 1023 30.21 852 25.16 1.3 34.4 80 -1.8 28.7
19:55 1023 30.21 852 25.16 1.2 34.2 80 -1.8 28.7
20:00 1023 30.21 852 25.16 1.3 34.3 81 -1.7 28.9
20:05 1023 30.21 852 25.16 1.2 34.1 81 -1.8 28.8
20:10 1023 30.21 852 25.16 1.1 34 81 -1.7 28.9
20:15 1023 30.21 852 25.16 1.1 34 81 -1.7 28.9
20:20 1023 30.21 852 25.16 1.1 33.9 82 -1.7 28.9
20:25 1023 30.21 852 25.16 1.1 34 82 -1.7 29
20:30 1023 30.21 852 25.16 1.1 33.9 82 -1.7 29
20:35 1023 30.21 852 25.16 1.1 33.9 82 -1.7 29
20:40 1023 30.21 852 25.16 1.1 34 82 -1.7 29
20:45 1023 30.21 853 25.19 1.1 34 82 -1.6 29.1
20:50 1023 30.21 853 25.19 1.2 34.1 82 -1.6 29.1
20:55 1023 30.21 853 25.19 1.1 34.1 82 -1.7 29
21:00 1023 30.21 853 25.19 1.1 34 82 -1.6 29.1
21:05 1023 30.21 853 25.19 1 33.8 82 -1.7 29
21:10 1023 30.21 853 25.19 0.9 33.6 83 -1.6 29
21:15 1023 30.21 853 25.19 0.7 33.3 84 -1.7 28.9
21:20 1023 30.21 853 25.19 0.6 33 84 -1.8 28.8
21:25 1024 30.24 853 25.19 0.5 32.9 85 -1.8 28.8
21:30 1024 30.24 853 25.19 0.4 32.7 85 -1.9 28.7
21:35 1024 30.24 853 25.19 0.3 32.5 85 -1.9 28.5
21:40 1024 30.24 853 25.19 0.3 32.5 85 -1.9 28.5
21:45 1024 30.24 853 25.19 0.2 32.4 85 -2 28.4
21:50 1024 30.24 853 25.19 0.2 32.4 85 -2 28.4
21:55 1024 30.24 853 25.19 0.1 32.1 86 -2.1 28.3
22:00 1024 30.24 853 25.19 -0.1 31.9 86 -2.1 28.2
22:05 1024 30.24 853 25.19 -0.2 31.7 87 -2.1 28.1
22:10 1024 30.24 853 25.19 -0.3 31.5 87 -2.2 28
22:15 1024 30.24 853 25.19 -0.4 31.3 87 -2.3 27.9
22:20 1024 30.24 853 25.19 -0.5 31.1 88 -2.2 28
22:25 1024 30.24 853 25.19 -0.6 31 88 -2.3 27.9
22:30 1024 30.24 853 25.19 -0.6 30.9 88 -2.3 27.8
22:35 1023 30.21 853 25.19 -0.6 31 88 -2.3 27.8
22:40 1024 30.24 853 25.19 -0.5 31 87 -2.4 27.7
22:45 1024 30.24 853 25.19 -0.6 31 87 -2.4 27.6
22:50 1024 30.24 853 25.19 -0.6 30.8 87 -2.5 27.5
22:55 1023 30.21 853 25.19 -0.7 30.7 88 -2.5 27.5
23:00 1023 30.21 853 25.19 -0.7 30.7 88 -2.5 27.5
23:05 1024 30.24 853 25.19 -0.8 30.5 88 -2.5 27.4
23:10 1024 30.24 853 25.19 -0.7 30.8 88 -2.5 27.5
23:15 1024 30.24 853 25.19 -0.6 30.9 87 -2.5 27.5
23:20 1024 30.24 853 25.19 -0.6 30.9 87 -2.5 27.5
23:25 1024 30.24 853 25.19 -0.7 30.8 87 -2.5 27.5
23:30 1024 30.24 853 25.19 -0.7 30.7 87 -2.7 27.2
23:35 1024 30.24 853 25.19 -0.7 30.7 87 -2.7 27.2
23:40 1024 30.24 853 25.19 -0.7 30.7 87 -2.6 27.3
23:45 1024 30.24 853 25.19 -0.8 30.6 87 -2.7 27.2
23:50 1024 30.24 853 25.19 -0.7 30.7 87 -2.7 27.2
23:55 1024 30.24 853 25.19 -0.7 30.7 86 -2.7 27.1
24:00 1024 30.24 853 25.19 -0.6 30.9 86 -2.6 27.3